createdAt,value
2018-12-06T00:01:18.020Z,428.75
2018-12-06T00:03:50.275Z,409.75
2018-12-06T00:06:22.171Z,376.50
2018-12-06T00:08:54.295Z,415.75
2018-12-06T00:11:25.958Z,382.50
2018-12-06T00:13:57.630Z,406.50
2018-12-06T00:16:29.280Z,402.00
2018-12-06T00:19:11.388Z,422.25
2018-12-06T00:21:43.118Z,437.00
2018-12-06T00:24:14.529Z,415.50
2018-12-06T00:26:46.176Z,399.25
2018-12-06T00:29:17.589Z,438.50
2018-12-06T00:31:49.429Z,404.50
2018-12-06T00:34:21.848Z,393.00
2018-12-06T00:36:54.012Z,395.50
2018-12-06T00:39:25.244Z,419.75
2018-12-06T00:41:56.905Z,415.25
2018-12-06T00:44:28.302Z,408.50
2018-12-06T00:46:59.670Z,425.50
2018-12-06T00:49:30.902Z,408.75
2018-12-06T00:52:02.350Z,426.75
2018-12-06T00:54:33.706Z,400.00
2018-12-06T00:57:06.101Z,316.50
2018-12-06T00:59:37.471Z,411.75
2018-12-06T01:02:09.892Z,398.50
2018-12-06T01:04:41.665Z,392.50
2018-12-06T01:07:13.404Z,394.00
2018-12-06T01:09:44.743Z,370.50
2018-12-06T01:12:16.364Z,371.00
2018-12-06T01:14:49.727Z,387.00
2018-12-06T01:17:22.286Z,388.50
2018-12-06T01:19:57.650Z,357.25
2018-12-06T01:22:31.111Z,389.25
2018-12-06T01:25:04.569Z,373.00
2018-12-06T01:27:40.641Z,358.75
2018-12-06T01:30:14.269Z,378.50
2018-12-06T01:32:45.768Z,378.25
2018-12-06T01:35:19.276Z,379.25
2018-12-06T01:37:52.018Z,378.00
2018-12-06T01:40:23.474Z,382.50
2018-12-06T01:42:54.964Z,385.00
2018-12-06T01:45:26.372Z,383.00
2018-12-06T01:47:58.903Z,387.25
2018-12-06T01:50:30.360Z,374.00
2018-12-06T01:53:01.761Z,390.50
2018-12-06T01:55:33.265Z,398.00
2018-12-06T01:58:05.004Z,384.25
2018-12-06T02:00:36.538Z,391.75
2018-12-06T02:03:08.036Z,373.75
2018-12-06T02:05:39.697Z,380.25
2018-12-06T02:08:11.345Z,384.50
2018-12-06T02:10:42.730Z,408.00
2018-12-06T02:13:15.268Z,384.00
2018-12-06T02:15:46.568Z,372.25
2018-12-06T02:18:18.185Z,386.75
2018-12-06T02:20:50.481Z,387.75
2018-12-06T02:23:22.101Z,381.25
2018-12-06T02:25:53.495Z,377.50
2018-12-06T02:28:25.001Z,362.75
2018-12-06T02:30:56.408Z,373.25
2018-12-06T02:33:28.192Z,392.75
2018-12-06T02:36:03.450Z,368.50
2018-12-06T02:38:35.020Z,389.00
2018-12-06T02:41:10.380Z,381.25
2018-12-06T02:43:42.953Z,387.50
2018-12-06T02:46:14.330Z,402.75
2018-12-06T02:48:45.908Z,399.25
2018-12-06T02:51:17.065Z,400.00
2018-12-06T02:53:48.777Z,400.75
2018-12-06T02:56:20.099Z,406.25
2018-12-06T02:58:52.119Z,478.75
2018-12-06T03:01:23.500Z,470.50
2018-12-06T03:03:55.005Z,452.50
2018-12-06T03:06:26.865Z,488.00
2018-12-06T03:08:58.317Z,490.50
2018-12-06T03:11:30.039Z,458.50
2018-12-06T03:14:01.541Z,492.20
2018-12-06T03:16:35.003Z,540.00
2018-12-06T03:19:06.653Z,527.00
2018-12-06T03:21:38.149Z,564.00
2018-12-06T03:24:09.752Z,580.40
2018-12-06T03:26:41.402Z,567.00
2018-12-06T03:29:12.911Z,571.75
2018-12-06T03:31:45.570Z,581.75
2018-12-06T03:34:26.270Z,569.25
2018-12-06T03:37:00.190Z,589.75
2018-12-06T03:39:42.967Z,585.20
2018-12-06T03:42:16.279Z,594.00
2018-12-06T03:44:51.011Z,603.20
2018-12-06T03:47:32.899Z,615.00
2018-12-06T03:50:20.800Z,641.60
2018-12-06T03:52:52.709Z,633.40
2018-12-06T03:55:25.171Z,616.60
2018-12-06T03:57:56.673Z,596.80
2018-12-06T04:00:34.030Z,581.60
2018-12-06T04:03:06.978Z,593.50
2018-12-06T04:05:39.521Z,565.00
2018-12-06T04:08:17.126Z,562.80
2018-12-06T04:10:54.158Z,529.60
2018-12-06T04:13:31.713Z,459.00
2018-12-06T04:16:07.788Z,511.80
2018-12-06T04:18:39.128Z,434.50
2018-12-06T04:21:15.337Z,481.00
2018-12-06T04:23:46.723Z,346.25
2018-12-06T04:26:21.112Z,372.50
2018-12-06T04:28:52.534Z,340.00
2018-12-06T04:31:25.343Z,363.00
2018-12-06T04:33:59.297Z,313.75
2018-12-06T04:36:31.430Z,390.75
2018-12-06T04:39:06.148Z,390.50
2018-12-06T04:41:38.111Z,343.50
2018-12-06T04:44:10.288Z,361.75
2018-12-06T04:46:41.754Z,395.50
2018-12-06T04:49:13.374Z,386.75
2018-12-06T04:51:45.009Z,368.50
2018-12-06T04:54:16.404Z,357.50
2018-12-06T04:56:48.047Z,351.25
2018-12-06T04:59:19.454Z,288.50
2018-12-06T05:01:50.953Z,296.75
2018-12-06T05:04:22.351Z,283.00
2018-12-06T05:06:53.853Z,259.00
2018-12-06T05:09:26.308Z,268.50
2018-12-06T05:11:57.860Z,265.75
2018-12-06T05:14:29.540Z,258.25
2018-12-06T05:17:01.022Z,276.00
2018-12-06T05:19:32.617Z,266.75
2018-12-06T05:22:04.117Z,290.00
2018-12-06T05:24:36.715Z,250.25
2018-12-06T05:27:08.392Z,211.75
2018-12-06T05:29:39.932Z,253.00
2018-12-06T05:32:11.472Z,214.25
2018-12-06T05:34:43.202Z,232.75
2018-12-06T05:37:14.629Z,232.00
2018-12-06T05:39:46.775Z,253.75
2018-12-06T05:42:18.198Z,230.00
2018-12-06T05:44:49.666Z,257.25
2018-12-06T05:47:21.085Z,260.25
2018-12-06T05:49:52.539Z,268.25
2018-12-06T05:52:24.181Z,245.50
2018-12-06T05:54:55.542Z,256.50
2018-12-06T05:57:27.140Z,238.25
2018-12-06T05:59:58.662Z,244.50
2018-12-06T06:02:30.288Z,195.20
2018-12-06T06:05:01.800Z,186.40
2018-12-06T06:07:33.553Z,234.00
2018-12-06T06:10:05.420Z,230.80
2018-12-06T06:12:36.967Z,194.50
2018-12-06T06:15:08.867Z,216.25
2018-12-06T06:17:41.406Z,233.25
2018-12-06T06:20:17.070Z,233.40
2018-12-06T06:22:48.620Z,224.80
2018-12-06T06:25:21.039Z,200.80
2018-12-06T06:27:53.962Z,195.20
2018-12-06T06:30:28.493Z,213.00
2018-12-06T06:33:02.322Z,215.20
2018-12-06T06:35:33.643Z,188.00
2018-12-06T06:38:05.152Z,194.40
2018-12-06T06:40:37.296Z,170.60
2018-12-06T06:43:11.079Z,180.80
2018-12-06T06:45:43.764Z,177.00
2018-12-06T06:48:15.422Z,184.40
2018-12-06T06:50:50.221Z,168.40
2018-12-06T06:53:21.732Z,163.20
2018-12-06T06:55:53.084Z,157.60
2018-12-06T06:58:28.720Z,183.20
2018-12-06T07:01:00.698Z,170.20
2018-12-06T07:03:32.540Z,172.40
2018-12-06T07:06:04.136Z,163.60
2018-12-06T07:08:36.136Z,164.20
2018-12-06T07:11:56.681Z,159.80
2018-12-06T07:14:28.586Z,146.60
2018-12-06T07:17:01.155Z,163.00
2018-12-06T07:19:32.688Z,151.20
2018-12-06T07:22:04.259Z,162.00
2018-12-06T07:24:39.001Z,140.60
2018-12-06T07:27:11.587Z,154.20
2018-12-06T07:29:43.011Z,151.00
2018-12-06T07:32:14.381Z,135.80
2018-12-06T07:34:46.035Z,150.80
2018-12-06T07:37:17.461Z,138.40
2018-12-06T07:39:48.944Z,129.80
2018-12-06T07:42:21.162Z,132.40
2018-12-06T07:44:52.767Z,139.80
2018-12-06T07:47:24.275Z,158.20
2018-12-06T07:49:56.362Z,138.20
2018-12-06T07:52:27.724Z,128.00
2018-12-06T07:55:01.175Z,138.60
2018-12-06T07:57:34.713Z,132.80
2018-12-06T08:00:08.677Z,132.40
2018-12-06T08:02:45.177Z,140.40
2018-12-06T08:05:17.893Z,141.00
2018-12-06T08:07:49.352Z,125.80
2018-12-06T08:10:20.797Z,143.00
2018-12-06T08:12:53.947Z,122.00
2018-12-06T08:15:25.696Z,135.00
2018-12-06T08:17:57.318Z,131.60
2018-12-06T08:20:30.958Z,126.00
2018-12-06T08:23:02.444Z,117.00
2018-12-06T08:25:34.059Z,123.60
2018-12-06T08:28:05.480Z,131.40
2018-12-06T08:30:37.333Z,125.40
2018-12-06T08:33:08.765Z,106.20
2018-12-06T08:35:40.342Z,137.60
2018-12-06T08:38:12.674Z,121.80
2018-12-06T08:40:45.142Z,121.40
2018-12-06T08:43:16.905Z,123.60
2018-12-06T08:45:48.561Z,121.80
2018-12-06T08:48:21.484Z,125.40
2018-12-06T08:50:53.812Z,119.60
2018-12-06T08:53:25.948Z,131.00
2018-12-06T08:55:57.614Z,111.40
2018-12-06T08:58:29.587Z,113.40
2018-12-06T09:01:01.532Z,111.00
2018-12-06T09:03:34.274Z,110.40
2018-12-06T09:06:05.714Z,116.40
2018-12-06T09:08:37.826Z,108.00
2018-12-06T09:11:10.002Z,117.80
2018-12-06T09:13:42.263Z,104.40
2018-12-06T09:16:14.049Z,121.20
2018-12-06T09:18:45.511Z,111.40
2018-12-06T09:21:17.155Z,124.80
2018-12-06T09:23:48.590Z,133.20
2018-12-06T09:26:20.122Z,137.20
2018-12-06T09:28:52.884Z,140.40
2018-12-06T09:31:26.307Z,136.40
2018-12-06T09:34:06.857Z,123.00
2018-12-06T09:36:39.529Z,132.00
2018-12-06T09:39:12.240Z,133.80
2018-12-06T09:41:43.787Z,127.60
2018-12-06T09:44:16.076Z,130.20
2018-12-06T09:46:47.766Z,134.60
2018-12-06T09:49:19.494Z,143.40
2018-12-06T09:51:51.940Z,148.80
2018-12-06T09:54:23.584Z,162.40
2018-12-06T09:56:55.123Z,163.80
2018-12-06T09:59:26.660Z,148.60
2018-12-06T10:01:58.514Z,158.60
2018-12-06T10:04:30.038Z,156.60
2018-12-06T10:07:01.591Z,161.80
2018-12-06T10:09:33.153Z,152.40
2018-12-06T10:12:07.141Z,146.00
2018-12-06T10:14:41.705Z,154.80
2018-12-06T10:17:13.633Z,163.40
2018-12-06T10:19:45.069Z,141.60
2018-12-06T10:22:16.879Z,159.20
2018-12-06T10:24:48.579Z,139.00
2018-12-06T10:27:20.720Z,155.40
2018-12-06T10:44:47.698Z,135.00
2018-12-06T10:50:33.441Z,148.20
2018-12-06T10:53:16.168Z,151.60
2018-12-06T11:01:53.785Z,157.20
2018-12-06T11:04:29.357Z,146.00
2018-12-06T11:07:01.929Z,149.00
2018-12-06T11:09:35.519Z,146.20
2018-12-06T11:12:07.135Z,144.80
2018-12-06T11:17:36.565Z,145.20
2018-12-06T11:20:08.666Z,133.20
2018-12-06T11:22:40.369Z,136.80
2018-12-06T11:25:11.863Z,139.80
2018-12-06T11:27:46.840Z,127.40
2018-12-06T11:30:18.316Z,144.60
2018-12-06T11:32:49.988Z,156.80
2018-12-06T11:35:22.408Z,146.00
2018-12-06T11:37:59.980Z,149.80
2018-12-06T11:40:31.516Z,144.20
2018-12-06T11:43:06.508Z,139.00
2018-12-06T11:45:38.215Z,133.80
2018-12-06T11:48:11.509Z,142.00
2018-12-06T11:50:43.071Z,136.60
2018-12-06T11:53:14.542Z,144.20
2018-12-06T11:55:45.761Z,141.00
2018-12-06T11:58:19.684Z,156.00
2018-12-06T12:00:54.227Z,140.20
2018-12-06T12:03:31.870Z,136.40
2018-12-06T12:06:04.541Z,137.80
2018-12-06T12:08:41.229Z,133.80
2018-12-06T12:11:18.253Z,158.80
2018-12-06T12:13:55.454Z,131.40
2018-12-06T12:16:32.516Z,155.00
2018-12-06T12:19:06.267Z,126.40
2018-12-06T12:24:38.929Z,151.00
2018-12-06T12:27:16.181Z,152.60
2018-12-06T12:29:52.691Z,151.00
2018-12-06T12:32:28.871Z,152.80
2018-12-06T12:35:12.972Z,147.20
2018-12-06T12:37:53.682Z,166.00
2018-12-06T12:40:30.227Z,165.40
2018-12-06T12:43:01.980Z,154.60
2018-12-06T12:45:42.578Z,161.40
2018-12-06T12:51:12.204Z,158.50
2018-12-06T12:53:45.174Z,180.60
2018-12-06T12:56:55.328Z,186.00
2018-12-06T12:59:28.036Z,173.80
2018-12-06T13:02:00.697Z,197.80
2018-12-06T13:04:36.675Z,192.20
2018-12-06T13:07:27.097Z,189.20
2018-12-06T13:22:15.212Z,208.25
2018-12-06T13:24:53.805Z,195.80
2018-12-06T13:27:32.641Z,196.80
2018-12-06T13:36:27.928Z,210.00
2018-12-06T13:42:23.366Z,219.00
2018-12-06T13:44:50.374Z,217.25
2018-12-06T13:47:22.635Z,254.75
2018-12-06T13:53:05.560Z,260.50
2018-12-06T13:58:52.483Z,286.25
2018-12-06T14:03:18.368Z,260.75
2018-12-06T14:05:49.380Z,312.50
2018-12-06T14:08:24.924Z,325.75
2018-12-06T14:13:36.502Z,351.50
2018-12-06T14:16:12.010Z,333.50
2018-12-06T14:18:46.865Z,370.75
2018-12-06T14:21:22.020Z,368.25
2018-12-06T14:23:53.302Z,366.50
2018-12-06T14:26:23.873Z,437.00
2018-12-06T14:28:57.230Z,511.25
2018-12-06T14:31:27.508Z,478.25
2018-12-06T14:34:01.253Z,461.40
2018-12-06T14:36:31.478Z,437.80
2018-12-06T14:39:03.845Z,436.40
2018-12-06T14:41:37.609Z,435.80
2018-12-06T14:44:07.739Z,430.40
2018-12-06T14:46:37.918Z,413.00
2018-12-06T14:49:08.107Z,454.80
2018-12-06T14:51:42.079Z,401.40
2018-12-06T14:54:12.123Z,444.20
2018-12-06T14:56:46.946Z,458.20
2018-12-06T14:59:17.126Z,452.20
2018-12-06T15:01:47.148Z,431.25
2018-12-06T15:04:18.371Z,473.40
2018-12-06T15:06:50.668Z,485.20
2018-12-06T15:09:26.842Z,478.20
2018-12-06T15:11:58.832Z,497.20
2018-12-06T15:14:38.088Z,496.00
2018-12-06T15:17:08.527Z,519.60
2018-12-06T15:19:45.093Z,517.20
2018-12-06T15:22:20.335Z,493.60
2018-12-06T15:24:50.968Z,502.40
2018-12-06T15:27:27.724Z,482.60
2018-12-06T15:30:02.510Z,494.20
2018-12-06T15:32:32.830Z,507.00
2018-12-06T15:35:12.209Z,581.17
2018-12-06T15:37:46.103Z,591.00
2018-12-06T15:40:19.747Z,547.50
2018-12-06T15:42:50.890Z,566.20
2018-12-06T15:45:27.250Z,532.40
2018-12-06T15:48:03.622Z,560.00
2018-12-06T15:50:40.232Z,530.60
2018-12-06T15:53:27.071Z,537.00
2018-12-06T16:02:26.005Z,474.80
2018-12-06T16:05:05.587Z,515.00
2018-12-06T16:07:36.862Z,551.00
2018-12-06T16:10:17.093Z,543.40
2018-12-06T16:12:52.237Z,551.40
2018-12-06T16:18:15.783Z,548.80
2018-12-06T16:20:56.138Z,529.60
2018-12-06T16:23:31.737Z,496.00
2018-12-06T16:26:03.278Z,521.60
2018-12-06T16:28:37.547Z,550.80
2018-12-06T16:31:17.195Z,552.80
2018-12-06T16:33:47.307Z,513.60
2018-12-06T16:36:18.024Z,524.60
2018-12-06T16:38:50.053Z,539.80
2018-12-06T16:41:23.972Z,533.40
2018-12-06T16:44:04.488Z,531.20
2018-12-06T16:46:50.354Z,521.20
2018-12-06T16:49:33.367Z,522.40
2018-12-06T16:52:04.916Z,533.60
2018-12-06T16:54:46.709Z,505.80
2018-12-06T16:57:27.961Z,544.40
2018-12-06T17:00:06.210Z,580.60
2018-12-06T17:02:46.437Z,601.20
2018-12-06T17:05:24.318Z,558.00
2018-12-06T17:08:00.551Z,602.40
2018-12-06T17:10:32.092Z,596.60
2018-12-06T17:13:08.866Z,587.00
2018-12-06T17:15:52.623Z,601.00
2018-12-06T17:21:23.039Z,608.50
2018-12-06T17:23:57.809Z,628.67
2018-12-06T17:26:34.157Z,613.60
2018-12-06T17:29:08.212Z,630.60
2018-12-06T17:31:43.640Z,612.20
2018-12-06T17:34:17.672Z,605.40
2018-12-06T17:36:53.273Z,593.60
2018-12-06T17:39:28.939Z,566.20
2018-12-06T17:44:57.898Z,576.00
2018-12-06T17:47:37.683Z,532.20
2018-12-06T17:50:13.034Z,569.75
2018-12-06T17:52:47.577Z,537.50
2018-12-06T17:55:23.095Z,501.40
2018-12-06T17:58:02.009Z,546.80
2018-12-06T18:00:39.272Z,535.80
2018-12-06T18:03:12.238Z,499.00
2018-12-06T18:05:48.852Z,496.40
2018-12-06T18:08:23.576Z,535.00
2018-12-06T18:10:59.944Z,504.60
2018-12-06T18:13:30.121Z,500.40
2018-12-06T18:16:04.963Z,496.25
2018-12-06T18:18:40.547Z,467.75
2018-12-06T18:21:21.097Z,470.75
2018-12-06T18:23:51.431Z,465.00
2018-12-06T18:26:33.128Z,471.00
2018-12-06T18:29:08.291Z,468.75
2018-12-06T18:31:45.887Z,468.25
2018-12-06T18:34:17.026Z,466.00
2018-12-06T18:36:50.513Z,471.25
2018-12-06T18:39:20.600Z,445.75
2018-12-06T18:41:56.256Z,445.50
2018-12-06T18:44:26.374Z,437.25
2018-12-06T18:47:01.036Z,454.00
2018-12-06T18:49:31.721Z,432.50
2018-12-06T18:52:06.735Z,459.00
2018-12-06T18:54:38.477Z,450.25
2018-12-06T18:57:14.643Z,479.00
2018-12-06T18:59:44.670Z,466.25
2018-12-06T19:02:18.633Z,459.00
2018-12-06T19:07:37.008Z,431.25
2018-12-06T19:10:10.119Z,451.75
2018-12-06T19:18:28.691Z,417.50
2018-12-06T19:20:58.855Z,446.25
2018-12-06T19:23:34.956Z,445.25
2018-12-06T19:26:08.350Z,431.00
2018-12-06T19:28:41.964Z,442.50
2018-12-06T19:34:02.129Z,403.50
2018-12-06T19:36:39.291Z,449.75
2018-12-06T19:42:05.093Z,434.00
2018-12-06T19:44:35.816Z,380.75
2018-12-06T19:47:14.643Z,395.25
2018-12-06T19:49:49.529Z,404.75
2018-12-06T19:52:21.543Z,388.75
2018-12-06T19:54:55.024Z,391.75
2018-12-06T19:57:25.134Z,400.25
2018-12-06T19:59:59.461Z,398.25
2018-12-06T20:02:29.601Z,375.00
2018-12-06T20:05:10.647Z,355.50
2018-12-06T20:07:47.586Z,336.00
2018-12-06T20:10:22.492Z,352.75
2018-12-06T20:12:57.811Z,353.50
2018-12-06T20:15:44.965Z,352.75
2018-12-06T20:18:14.920Z,360.50
2018-12-06T20:20:46.080Z,351.25
2018-12-06T20:23:27.968Z,350.25
2018-12-06T20:25:58.055Z,336.00
2018-12-06T20:28:31.928Z,336.00
2018-12-06T20:31:09.068Z,345.50
2018-12-06T20:33:39.169Z,338.25
2018-12-06T20:36:18.549Z,346.75
2018-12-06T20:38:56.152Z,348.50
2018-12-06T20:41:26.207Z,324.00
2018-12-06T20:43:57.198Z,335.75
2018-12-06T20:46:31.415Z,333.00
2018-12-06T20:49:10.366Z,340.00
2018-12-06T20:51:41.534Z,337.25
2018-12-06T20:54:14.988Z,337.00
2018-12-06T20:56:55.114Z,321.75
2018-12-06T20:59:25.508Z,350.75
2018-12-06T21:02:05.743Z,326.75
2018-12-06T21:04:36.829Z,333.75
2018-12-06T21:07:18.908Z,333.50
2018-12-06T21:09:48.965Z,327.00
2018-12-06T21:12:19.008Z,297.00
2018-12-06T21:14:49.164Z,310.00
2018-12-06T21:17:19.812Z,309.50
2018-12-06T21:19:49.758Z,302.25
2018-12-06T21:22:21.401Z,304.75
2018-12-06T21:24:51.545Z,320.75
2018-12-06T21:27:21.680Z,315.50
2018-12-06T21:29:51.791Z,323.50
2018-12-06T21:32:22.146Z,323.25
2018-12-06T21:34:54.506Z,314.00
2018-12-06T21:37:24.558Z,313.50
2018-12-06T21:39:56.740Z,339.00
2018-12-06T21:42:27.081Z,325.25
2018-12-06T21:44:57.114Z,318.75
2018-12-06T21:47:28.178Z,313.75
2018-12-06T21:49:58.183Z,321.00
2018-12-06T21:52:28.285Z,303.00
2018-12-06T21:54:58.353Z,342.25
2018-12-06T21:57:28.439Z,338.00
2018-12-06T21:59:58.494Z,313.00
2018-12-06T22:02:29.799Z,309.00
2018-12-06T22:04:59.831Z,330.00
2018-12-06T22:07:30.013Z,310.25
2018-12-06T22:09:59.963Z,315.50
2018-12-06T22:12:30.080Z,318.25
2018-12-06T22:15:00.094Z,329.25
2018-12-06T22:17:31.064Z,324.25
2018-12-06T22:20:01.035Z,319.75
2018-12-06T22:22:31.498Z,302.25
2018-12-06T22:25:01.539Z,317.75
2018-12-06T22:27:31.775Z,309.00
2018-12-06T22:30:01.747Z,303.25
2018-12-06T22:32:32.013Z,314.50
2018-12-06T22:35:02.060Z,282.75
2018-12-06T22:37:32.221Z,302.00
2018-12-06T22:40:02.343Z,293.25
2018-12-06T22:42:32.514Z,292.25
2018-12-06T22:47:11.864Z,286.50
2018-12-06T22:49:42.274Z,309.00
2018-12-06T22:52:12.492Z,307.50
2018-12-06T22:54:42.530Z,294.25
2018-12-06T22:57:12.619Z,316.75
2018-12-06T22:59:42.865Z,319.00
2018-12-06T23:02:12.840Z,309.75
2018-12-06T23:04:43.118Z,307.75
2018-12-06T23:07:13.104Z,287.00
2018-12-06T23:09:43.203Z,312.00
2018-12-06T23:12:13.274Z,298.00
2018-12-06T23:14:43.513Z,302.75
2018-12-06T23:17:13.523Z,296.75
2018-12-06T23:19:45.317Z,267.75
2018-12-06T23:22:15.529Z,305.00
2018-12-06T23:24:46.271Z,307.25
2018-12-06T23:27:16.297Z,294.75
2018-12-06T23:29:46.451Z,287.75
2018-12-06T23:32:16.518Z,289.75
2018-12-06T23:34:47.718Z,286.50
2018-12-06T23:37:17.733Z,310.75
2018-12-06T23:39:47.874Z,276.50
2018-12-06T23:42:17.933Z,283.50
2018-12-06T23:44:48.147Z,299.00
2018-12-06T23:47:18.293Z,299.75
2018-12-06T23:49:48.811Z,290.25
2018-12-06T23:52:18.973Z,296.25
2018-12-06T23:54:49.048Z,302.00
2018-12-06T23:57:19.106Z,295.00
2018-12-06T23:59:49.069Z,293.50
